sensor_id;sensor_type;location;lat;lon;timestamp;pressure;altitude;pressure_sealevel;temperature;humidity
7200;BME280;3641;49.082;8.200;2022-08-19T00:01:49;99904.91;;;20.62;71.14
7200;BME280;3641;49.082;8.200;2022-08-19T00:04:17;99900.03;;;20.70;70.71
7200;BME280;3641;49.082;8.200;2022-08-19T00:06:46;99900.41;;;20.56;71.35
7200;BME280;3641;49.082;8.200;2022-08-19T00:09:16;99894.16;;;20.66;70.59
7200;BME280;3641;49.082;8.200;2022-08-19T00:11:44;99905.34;;;20.49;71.48
7200;BME280;3641;49.082;8.200;2022-08-19T00:14:13;99901.69;;;20.43;71.61
7200;BME280;3641;49.082;8.200;2022-08-19T00:16:43;99916.94;;;20.19;74.40
7200;BME280;3641;49.082;8.200;2022-08-19T00:19:10;99911.16;;;19.98;75.85
7200;BME280;3641;49.082;8.200;2022-08-19T00:21:36;99922.34;;;20.08;75.08
7200;BME280;3641;49.082;8.200;2022-08-19T00:24:05;99903.41;;;20.22;72.72
7200;BME280;3641;49.082;8.200;2022-08-19T00:26:31;99909.72;;;20.18;74.40
7200;BME280;3641;49.082;8.200;2022-08-19T00:28:59;99900.84;;;20.16;73.57
7200;BME280;3641;49.082;8.200;2022-08-19T00:31:26;99890.66;;;19.99;75.19
7200;BME280;3641;49.082;8.200;2022-08-19T00:33:54;99893.31;;;20.38;72.14
7200;BME280;3641;49.082;8.200;2022-08-19T00:36:21;99893.31;;;20.38;72.29
7200;BME280;3641;49.082;8.200;2022-08-19T00:38:47;99888.50;;;20.28;73.78
7200;BME280;3641;49.082;8.200;2022-08-19T00:41:16;99893.22;;;20.28;73.31
7200;BME280;3641;49.082;8.200;2022-08-19T00:43:57;99903.06;;;20.41;72.27
7200;BME280;3641;49.082;8.200;2022-08-19T00:46:26;99902.78;;;20.42;72.15
7200;BME280;3641;49.082;8.200;2022-08-19T00:48:52;99911.28;;;20.36;72.38
7200;BME280;3641;49.082;8.200;2022-08-19T00:51:20;99909.19;;;20.21;73.02
7200;BME280;3641;49.082;8.200;2022-08-19T00:53:47;99912.88;;;20.26;72.97
7200;BME280;3641;49.082;8.200;2022-08-19T00:56:14;99901.53;;;20.28;72.43
7200;BME280;3641;49.082;8.200;2022-08-19T00:58:40;99893.88;;;20.40;71.73
7200;BME280;3641;49.082;8.200;2022-08-19T01:01:07;99888.72;;;20.49;71.28
7200;BME280;3641;49.082;8.200;2022-08-19T01:03:35;99883.47;;;20.53;71.25
7200;BME280;3641;49.082;8.200;2022-08-19T01:06:02;99875.38;;;20.46;71.85
7200;BME280;3641;49.082;8.200;2022-08-19T01:08:28;99868.25;;;20.55;71.14
7200;BME280;3641;49.082;8.200;2022-08-19T01:10:57;99873.53;;;20.57;71.44
7200;BME280;3641;49.082;8.200;2022-08-19T01:13:28;99881.38;;;20.10;74.34
7200;BME280;3641;49.082;8.200;2022-08-19T01:15:59;99893.50;;;20.04;74.45
7200;BME280;3641;49.082;8.200;2022-08-19T01:18:27;99896.34;;;20.37;71.99
7200;BME280;3641;49.082;8.200;2022-08-19T01:21:00;99908.94;;;20.49;71.73
7200;BME280;3641;49.082;8.200;2022-08-19T01:23:28;99905.22;;;20.11;73.59
7200;BME280;3641;49.082;8.200;2022-08-19T01:26:09;99900.19;;;20.08;74.83
7200;BME280;3641;49.082;8.200;2022-08-19T01:28:37;99891.03;;;20.08;73.79
7200;BME280;3641;49.082;8.200;2022-08-19T01:31:04;99887.50;;;20.12;73.75
7200;BME280;3641;49.082;8.200;2022-08-19T01:33:30;99884.78;;;20.18;73.27
7200;BME280;3641;49.082;8.200;2022-08-19T01:36:04;99890.28;;;20.40;72.57
7200;BME280;3641;49.082;8.200;2022-08-19T01:38:35;99889.91;;;20.31;72.59
7200;BME280;3641;49.082;8.200;2022-08-19T01:41:02;99889.00;;;19.76;76.30
7200;BME280;3641;49.082;8.200;2022-08-19T01:43:29;99896.41;;;19.92;74.36
7200;BME280;3641;49.082;8.200;2022-08-19T01:45:55;99900.66;;;20.00;75.20
7200;BME280;3641;49.082;8.200;2022-08-19T01:48:22;99911.63;;;19.90;74.80
7200;BME280;3641;49.082;8.200;2022-08-19T01:50:48;99910.81;;;19.72;76.77
7200;BME280;3641;49.082;8.200;2022-08-19T01:53:15;99913.13;;;19.41;78.36
7200;BME280;3641;49.082;8.200;2022-08-19T01:55:43;99911.28;;;19.47;77.87
7200;BME280;3641;49.082;8.200;2022-08-19T01:58:12;99914.84;;;19.82;74.46
7200;BME280;3641;49.082;8.200;2022-08-19T02:00:41;99913.41;;;19.79;76.44
7200;BME280;3641;49.082;8.200;2022-08-19T02:03:07;99906.66;;;19.75;75.08
7200;BME280;3641;49.082;8.200;2022-08-19T02:05:36;99904.34;;;19.67;75.21
7200;BME280;3641;49.082;8.200;2022-08-19T02:08:03;99902.66;;;19.83;75.47
7200;BME280;3641;49.082;8.200;2022-08-19T02:10:30;99898.75;;;19.78;75.57
7200;BME280;3641;49.082;8.200;2022-08-19T02:12:58;99910.78;;;19.50;76.63
7200;BME280;3641;49.082;8.200;2022-08-19T02:15:25;99903.25;;;19.46;77.70
7200;BME280;3641;49.082;8.200;2022-08-19T02:17:52;99909.56;;;19.24;78.71
7200;BME280;3641;49.082;8.200;2022-08-19T02:20:18;99913.84;;;19.32;77.58
7200;BME280;3641;49.082;8.200;2022-08-19T02:22:45;99904.34;;;19.67;74.65
7200;BME280;3641;49.082;8.200;2022-08-19T02:25:12;99899.94;;;19.66;76.24
7200;BME280;3641;49.082;8.200;2022-08-19T02:27:40;99902.97;;;19.86;73.82
7200;BME280;3641;49.082;8.200;2022-08-19T02:30:12;99896.81;;;19.62;75.88
7200;BME280;3641;49.082;8.200;2022-08-19T02:32:38;99902.31;;;19.40;77.00
7200;BME280;3641;49.082;8.200;2022-08-19T02:35:06;99899.91;;;19.44;76.09
7200;BME280;3641;49.082;8.200;2022-08-19T02:37:33;99900.47;;;19.46;77.61
7200;BME280;3641;49.082;8.200;2022-08-19T02:40:17;99908.78;;;19.46;76.31
7200;BME280;3641;49.082;8.200;2022-08-19T02:42:44;99905.47;;;19.66;74.85
7200;BME280;3641;49.082;8.200;2022-08-19T02:45:13;99906.53;;;19.82;73.87
7200;BME280;3641;49.082;8.200;2022-08-19T02:47:40;99914.63;;;19.49;77.42
7200;BME280;3641;49.082;8.200;2022-08-19T02:50:07;99910.09;;;19.60;76.84
7200;BME280;3641;49.082;8.200;2022-08-19T02:52:34;99911.47;;;19.40;78.02
7200;BME280;3641;49.082;8.200;2022-08-19T02:55:02;99905.34;;;19.38;77.31
7200;BME280;3641;49.082;8.200;2022-08-19T02:57:30;99899.81;;;19.77;74.40
7200;BME280;3641;49.082;8.200;2022-08-19T02:59:58;99892.59;;;19.76;75.21
7200;BME280;3641;49.082;8.200;2022-08-19T03:02:26;99898.81;;;19.84;74.49
7200;BME280;3641;49.082;8.200;2022-08-19T03:04:52;99899.75;;;19.72;76.28
7200;BME280;3641;49.082;8.200;2022-08-19T03:07:19;99892.09;;;19.80;74.33
7200;BME280;3641;49.082;8.200;2022-08-19T03:09:45;99889.63;;;19.83;74.22
7200;BME280;3641;49.082;8.200;2022-08-19T03:12:12;99888.09;;;19.92;74.67
7200;BME280;3641;49.082;8.200;2022-08-19T03:14:38;99897.94;;;19.83;75.19
7200;BME280;3641;49.082;8.200;2022-08-19T03:17:05;99906.00;;;19.85;74.04
7200;BME280;3641;49.082;8.200;2022-08-19T03:19:33;99897.31;;;19.76;75.94
7200;BME280;3641;49.082;8.200;2022-08-19T03:21:59;99902.03;;;19.58;76.82
7200;BME280;3641;49.082;8.200;2022-08-19T03:24:26;99901.78;;;19.60;76.68
7200;BME280;3641;49.082;8.200;2022-08-19T03:26:54;99906.81;;;19.63;75.37
7200;BME280;3641;49.082;8.200;2022-08-19T03:29:22;99896.22;;;19.77;74.54
7200;BME280;3641;49.082;8.200;2022-08-19T03:31:49;99895.56;;;19.92;73.55
7200;BME280;3641;49.082;8.200;2022-08-19T03:34:19;99905.63;;;19.98;72.98
7200;BME280;3641;49.082;8.200;2022-08-19T03:36:47;99899.06;;;20.04;72.29
7200;BME280;3641;49.082;8.200;2022-08-19T03:39:14;99899.81;;;20.00;72.29
7200;BME280;3641;49.082;8.200;2022-08-19T03:41:43;99901.03;;;20.09;72.01
7200;BME280;3641;49.082;8.200;2022-08-19T03:44:10;99899.94;;;20.10;71.70
7200;BME280;3641;49.082;8.200;2022-08-19T03:46:36;99898.59;;;20.12;71.49
7200;BME280;3641;49.082;8.200;2022-08-19T03:49:04;99900.59;;;20.17;71.30
7200;BME280;3641;49.082;8.200;2022-08-19T03:51:35;99901.94;;;20.14;71.21
7200;BME280;3641;49.082;8.200;2022-08-19T03:54:06;99901.66;;;20.16;70.94
7200;BME280;3641;49.082;8.200;2022-08-19T03:56:35;99916.34;;;20.17;71.30
7200;BME280;3641;49.082;8.200;2022-08-19T03:59:03;99923.31;;;20.19;70.97
7200;BME280;3641;49.082;8.200;2022-08-19T04:01:31;99925.25;;;20.19;70.94
7200;BME280;3641;49.082;8.200;2022-08-19T04:03:58;99919.94;;;20.12;70.73
7200;BME280;3641;49.082;8.200;2022-08-19T04:06:27;99920.25;;;20.16;70.98
7200;BME280;3641;49.082;8.200;2022-08-19T04:08:56;99914.75;;;20.21;70.77
7200;BME280;3641;49.082;8.200;2022-08-19T04:11:27;99911.47;;;20.24;70.56
7200;BME280;3641;49.082;8.200;2022-08-19T04:13:54;99903.13;;;20.24;70.65
7200;BME280;3641;49.082;8.200;2022-08-19T04:16:24;99910.25;;;20.14;70.75
7200;BME280;3641;49.082;8.200;2022-08-19T04:18:53;99923.38;;;20.02;71.70
7200;BME280;3641;49.082;8.200;2022-08-19T04:21:22;99920.69;;;20.07;71.55
7200;BME280;3641;49.082;8.200;2022-08-19T04:23:49;99923.41;;;19.80;73.71
7200;BME280;3641;49.082;8.200;2022-08-19T04:26:18;99929.41;;;19.55;75.55
7200;BME280;3641;49.082;8.200;2022-08-19T04:28:46;99929.88;;;19.30;76.66
7200;BME280;3641;49.082;8.200;2022-08-19T04:31:15;99920.88;;;19.22;76.86
7200;BME280;3641;49.082;8.200;2022-08-19T04:33:42;99923.25;;;19.14;77.44
7200;BME280;3641;49.082;8.200;2022-08-19T04:36:15;99921.22;;;19.26;76.42
7200;BME280;3641;49.082;8.200;2022-08-19T04:38:42;99921.31;;;19.14;77.12
7200;BME280;3641;49.082;8.200;2022-08-19T04:41:09;99918.81;;;18.96;78.15
7200;BME280;3641;49.082;8.200;2022-08-19T04:43:54;99922.41;;;18.96;77.51
7200;BME280;3641;49.082;8.200;2022-08-19T04:46:21;99927.34;;;19.45;74.33
7200;BME280;3641;49.082;8.200;2022-08-19T04:48:47;99925.84;;;19.37;75.64
7200;BME280;3641;49.082;8.200;2022-08-19T04:51:14;99927.41;;;19.50;73.91
7200;BME280;3641;49.082;8.200;2022-08-19T04:53:41;99924.50;;;19.23;76.33
7200;BME280;3641;49.082;8.200;2022-08-19T04:56:10;99930.94;;;19.29;76.07
7200;BME280;3641;49.082;8.200;2022-08-19T04:58:38;99926.16;;;19.41;74.32
7200;BME280;3641;49.082;8.200;2022-08-19T05:01:08;99930.34;;;19.44;75.38
7200;BME280;3641;49.082;8.200;2022-08-19T05:03:36;99939.09;;;19.35;74.91
7200;BME280;3641;49.082;8.200;2022-08-19T05:06:05;99942.66;;;19.53;74.13
7200;BME280;3641;49.082;8.200;2022-08-19T05:08:34;99948.31;;;19.24;76.19
7200;BME280;3641;49.082;8.200;2022-08-19T05:11:00;99954.69;;;19.24;75.22
7200;BME280;3641;49.082;8.200;2022-08-19T05:13:28;99952.59;;;19.15;76.53
7200;BME280;3641;49.082;8.200;2022-08-19T05:15:55;99955.59;;;19.47;74.04
7200;BME280;3641;49.082;8.200;2022-08-19T05:18:24;99962.75;;;19.26;76.41
7200;BME280;3641;49.082;8.200;2022-08-19T05:21:10;99962.31;;;19.34;74.51
7200;BME280;3641;49.082;8.200;2022-08-19T05:23:54;99963.91;;;19.47;74.19
7200;BME280;3641;49.082;8.200;2022-08-19T05:26:20;99966.78;;;19.35;75.15
7200;BME280;3641;49.082;8.200;2022-08-19T05:28:47;99967.59;;;19.36;74.85
7200;BME280;3641;49.082;8.200;2022-08-19T05:31:13;99976.13;;;19.51;73.91
7200;BME280;3641;49.082;8.200;2022-08-19T05:33:41;99976.91;;;19.47;74.86
7200;BME280;3641;49.082;8.200;2022-08-19T05:36:08;99984.16;;;19.53;74.71
7200;BME280;3641;49.082;8.200;2022-08-19T05:38:35;99982.56;;;19.74;72.94
7200;BME280;3641;49.082;8.200;2022-08-19T05:41:06;99993.34;;;19.53;74.74
7200;BME280;3641;49.082;8.200;2022-08-19T05:43:33;99996.44;;;19.57;73.77
7200;BME280;3641;49.082;8.200;2022-08-19T05:46:00;99997.09;;;19.64;73.37
7200;BME280;3641;49.082;8.200;2022-08-19T05:48:26;99995.66;;;19.62;73.47
7200;BME280;3641;49.082;8.200;2022-08-19T05:50:54;100000.63;;;19.76;73.47
7200;BME280;3641;49.082;8.200;2022-08-19T05:53:22;100005.81;;;19.73;73.33
7200;BME280;3641;49.082;8.200;2022-08-19T05:55:48;100007.97;;;19.88;72.59
7200;BME280;3641;49.082;8.200;2022-08-19T05:58:15;100012.78;;;19.75;73.79
7200;BME280;3641;49.082;8.200;2022-08-19T06:00:43;100019.66;;;19.73;73.63
7200;BME280;3641;49.082;8.200;2022-08-19T06:03:10;100017.59;;;19.80;73.64
7200;BME280;3641;49.082;8.200;2022-08-19T06:05:36;100024.50;;;20.00;72.52
7200;BME280;3641;49.082;8.200;2022-08-19T06:08:04;100024.59;;;19.88;73.78
7200;BME280;3641;49.082;8.200;2022-08-19T06:10:33;100028.09;;;20.00;72.67
7200;BME280;3641;49.082;8.200;2022-08-19T06:13:00;100028.63;;;19.97;73.03
7200;BME280;3641;49.082;8.200;2022-08-19T06:15:27;100022.31;;;20.02;72.95
7200;BME280;3641;49.082;8.200;2022-08-19T06:17:54;100026.06;;;20.12;72.57
7200;BME280;3641;49.082;8.200;2022-08-19T06:20:21;100026.75;;;20.03;73.11
7200;BME280;3641;49.082;8.200;2022-08-19T06:22:49;100020.91;;;20.21;72.36
7200;BME280;3641;49.082;8.200;2022-08-19T06:25:18;100025.47;;;20.32;72.12
7200;BME280;3641;49.082;8.200;2022-08-19T06:27:45;100020.44;;;20.29;72.25
7200;BME280;3641;49.082;8.200;2022-08-19T06:30:12;100012.47;;;20.33;72.04
7200;BME280;3641;49.082;8.200;2022-08-19T06:32:38;100023.03;;;20.36;71.95
7200;BME280;3641;49.082;8.200;2022-08-19T06:35:06;100024.19;;;20.40;71.49
7200;BME280;3641;49.082;8.200;2022-08-19T06:37:32;100022.06;;;20.47;71.44
7200;BME280;3641;49.082;8.200;2022-08-19T06:39:59;100026.88;;;20.57;71.08
7200;BME280;3641;49.082;8.200;2022-08-19T06:42:27;100024.44;;;20.61;70.98
7200;BME280;3641;49.082;8.200;2022-08-19T06:44:54;100031.47;;;20.68;70.68
7200;BME280;3641;49.082;8.200;2022-08-19T06:47:21;100027.63;;;20.70;70.74
7200;BME280;3641;49.082;8.200;2022-08-19T06:49:47;100034.00;;;20.70;70.90
7200;BME280;3641;49.082;8.200;2022-08-19T06:52:14;100030.75;;;20.78;70.59
7200;BME280;3641;49.082;8.200;2022-08-19T06:54:41;100037.94;;;20.74;70.55
7200;BME280;3641;49.082;8.200;2022-08-19T06:57:08;100034.94;;;20.81;70.61
7200;BME280;3641;49.082;8.200;2022-08-19T06:59:40;100033.66;;;20.89;70.50
7200;BME280;3641;49.082;8.200;2022-08-19T07:02:07;100042.28;;;20.92;70.41
7200;BME280;3641;49.082;8.200;2022-08-19T07:04:35;100041.16;;;20.93;70.20
7200;BME280;3641;49.082;8.200;2022-08-19T07:07:05;100040.38;;;20.98;70.07
7200;BME280;3641;49.082;8.200;2022-08-19T07:09:32;100039.78;;;20.91;70.17
7200;BME280;3641;49.082;8.200;2022-08-19T07:11:59;100040.72;;;21.01;70.36
7200;BME280;3641;49.082;8.200;2022-08-19T07:14:27;100041.63;;;21.12;70.23
7200;BME280;3641;49.082;8.200;2022-08-19T07:16:56;100039.38;;;21.09;69.87
7200;BME280;3641;49.082;8.200;2022-08-19T07:19:25;100046.66;;;21.15;70.01
7200;BME280;3641;49.082;8.200;2022-08-19T07:21:53;100039.22;;;21.21;69.84
7200;BME280;3641;49.082;8.200;2022-08-19T07:24:20;100038.97;;;21.22;69.82
7200;BME280;3641;49.082;8.200;2022-08-19T07:26:48;100036.75;;;21.25;69.10
7200;BME280;3641;49.082;8.200;2022-08-19T07:29:16;100037.84;;;21.23;69.53
7200;BME280;3641;49.082;8.200;2022-08-19T07:31:43;100042.97;;;21.37;68.78
7200;BME280;3641;49.082;8.200;2022-08-19T07:34:11;100038.63;;;21.46;68.67
7200;BME280;3641;49.082;8.200;2022-08-19T07:36:41;100036.47;;;21.53;68.73
7200;BME280;3641;49.082;8.200;2022-08-19T07:39:11;100042.06;;;21.58;67.64
7200;BME280;3641;49.082;8.200;2022-08-19T07:41:39;100041.88;;;21.70;67.49
7200;BME280;3641;49.082;8.200;2022-08-19T07:44:07;100048.28;;;21.76;67.14
7200;BME280;3641;49.082;8.200;2022-08-19T07:46:36;100043.34;;;21.83;66.31
7200;BME280;3641;49.082;8.200;2022-08-19T07:49:06;100041.16;;;21.90;65.11
7200;BME280;3641;49.082;8.200;2022-08-19T07:51:34;100040.69;;;21.99;66.47
7200;BME280;3641;49.082;8.200;2022-08-19T07:54:01;100040.72;;;22.04;65.26
7200;BME280;3641;49.082;8.200;2022-08-19T07:56:28;100044.66;;;22.13;65.00
7200;BME280;3641;49.082;8.200;2022-08-19T07:58:54;100041.69;;;22.30;64.66
7200;BME280;3641;49.082;8.200;2022-08-19T08:01:24;100044.69;;;22.23;63.78
7200;BME280;3641;49.082;8.200;2022-08-19T08:03:52;100032.00;;;22.38;63.22
7200;BME280;3641;49.082;8.200;2022-08-19T08:06:38;100032.59;;;22.50;63.04
7200;BME280;3641;49.082;8.200;2022-08-19T08:09:25;100035.66;;;22.48;65.23
7200;BME280;3641;49.082;8.200;2022-08-19T08:11:54;100034.84;;;22.53;63.29
7200;BME280;3641;49.082;8.200;2022-08-19T08:14:24;100032.41;;;22.72;60.30
7200;BME280;3641;49.082;8.200;2022-08-19T08:16:51;100033.25;;;22.83;61.58
7200;BME280;3641;49.082;8.200;2022-08-19T08:19:19;100038.31;;;22.96;61.06
7200;BME280;3641;49.082;8.200;2022-08-19T08:21:47;100043.00;;;22.91;61.20
7200;BME280;3641;49.082;8.200;2022-08-19T08:24:14;100036.63;;;22.90;60.43
7200;BME280;3641;49.082;8.200;2022-08-19T08:26:42;100042.19;;;22.90;61.32
7200;BME280;3641;49.082;8.200;2022-08-19T08:29:09;100038.25;;;22.86;61.47
7200;BME280;3641;49.082;8.200;2022-08-19T08:31:39;100045.50;;;22.87;60.87
7200;BME280;3641;49.082;8.200;2022-08-19T08:34:06;100043.84;;;22.86;60.67
7200;BME280;3641;49.082;8.200;2022-08-19T08:36:36;100037.44;;;22.91;60.32
7200;BME280;3641;49.082;8.200;2022-08-19T08:39:08;100042.75;;;22.97;59.28
7200;BME280;3641;49.082;8.200;2022-08-19T08:41:42;100050.53;;;23.00;59.67
7200;BME280;3641;49.082;8.200;2022-08-19T08:44:13;100052.22;;;22.96;60.60
7200;BME280;3641;49.082;8.200;2022-08-19T08:46:44;100054.47;;;23.04;61.51
7200;BME280;3641;49.082;8.200;2022-08-19T08:49:36;100053.38;;;23.11;59.24
7200;BME280;3641;49.082;8.200;2022-08-19T08:52:09;100058.41;;;23.14;59.95
7200;BME280;3641;49.082;8.200;2022-08-19T08:54:41;100053.94;;;23.18;60.30
7200;BME280;3641;49.082;8.200;2022-08-19T08:57:12;100057.28;;;23.15;62.01
7200;BME280;3641;49.082;8.200;2022-08-19T08:59:41;100056.44;;;23.19;62.18
7200;BME280;3641;49.082;8.200;2022-08-19T09:02:09;100060.09;;;23.20;60.80
7200;BME280;3641;49.082;8.200;2022-08-19T09:04:36;100055.06;;;23.32;59.10
7200;BME280;3641;49.082;8.200;2022-08-19T09:07:18;100054.22;;;23.37;59.35
7200;BME280;3641;49.082;8.200;2022-08-19T09:09:51;100061.75;;;23.42;58.98
7200;BME280;3641;49.082;8.200;2022-08-19T09:12:24;100052.03;;;23.49;59.01
7200;BME280;3641;49.082;8.200;2022-08-19T09:14:56;100049.53;;;23.43;58.48
7200;BME280;3641;49.082;8.200;2022-08-19T09:17:26;100051.75;;;23.46;59.44
7200;BME280;3641;49.082;8.200;2022-08-19T09:19:58;100048.38;;;23.59;58.29
7200;BME280;3641;49.082;8.200;2022-08-19T09:22:26;100052.28;;;23.58;58.06
7200;BME280;3641;49.082;8.200;2022-08-19T09:24:54;100051.72;;;23.61;57.55
7200;BME280;3641;49.082;8.200;2022-08-19T09:27:22;100055.06;;;23.68;56.98
7200;BME280;3641;49.082;8.200;2022-08-19T09:29:50;100051.72;;;23.87;56.52
7200;BME280;3641;49.082;8.200;2022-08-19T09:32:17;100052.81;;;23.96;56.34
7200;BME280;3641;49.082;8.200;2022-08-19T09:34:44;100047.22;;;24.01;55.05
7200;BME280;3641;49.082;8.200;2022-08-19T09:37:11;100048.59;;;24.09;57.08
7200;BME280;3641;49.082;8.200;2022-08-19T09:39:38;100043.91;;;23.94;55.54
7200;BME280;3641;49.082;8.200;2022-08-19T09:42:07;100046.41;;;24.11;56.08
7200;BME280;3641;49.082;8.200;2022-08-19T09:44:37;100040.78;;;24.16;54.40
7200;BME280;3641;49.082;8.200;2022-08-19T09:47:04;100046.31;;;24.26;55.13
7200;BME280;3641;49.082;8.200;2022-08-19T09:49:30;100045.50;;;24.26;55.92
7200;BME280;3641;49.082;8.200;2022-08-19T09:51:57;100047.97;;;24.38;54.12
7200;BME280;3641;49.082;8.200;2022-08-19T09:54:24;100046.25;;;24.47;53.51
7200;BME280;3641;49.082;8.200;2022-08-19T09:56:51;100054.59;;;24.52;55.01
7200;BME280;3641;49.082;8.200;2022-08-19T09:59:19;100041.50;;;24.58;55.27
7200;BME280;3641;49.082;8.200;2022-08-19T10:01:46;100034.47;;;24.65;54.50
7200;BME280;3641;49.082;8.200;2022-08-19T10:04:12;100036.59;;;24.84;53.32
7200;BME280;3641;49.082;8.200;2022-08-19T10:06:39;100035.97;;;24.97;54.08
7200;BME280;3641;49.082;8.200;2022-08-19T10:09:08;100033.19;;;24.97;51.69
7200;BME280;3641;49.082;8.200;2022-08-19T10:11:39;100040.91;;;25.11;53.21
7200;BME280;3641;49.082;8.200;2022-08-19T10:14:06;100043.13;;;25.14;50.84
7200;BME280;3641;49.082;8.200;2022-08-19T10:16:36;100044.16;;;25.28;52.03
7200;BME280;3641;49.082;8.200;2022-08-19T10:19:04;100046.69;;;25.25;54.06
7200;BME280;3641;49.082;8.200;2022-08-19T10:21:32;100042.16;;;25.34;52.43
7200;BME280;3641;49.082;8.200;2022-08-19T10:24:01;100046.09;;;25.33;52.81
7200;BME280;3641;49.082;8.200;2022-08-19T10:26:30;100037.94;;;25.36;51.88
7200;BME280;3641;49.082;8.200;2022-08-19T10:28:58;100036.00;;;25.32;53.62
7200;BME280;3641;49.082;8.200;2022-08-19T10:31:26;100042.72;;;25.36;51.81
7200;BME280;3641;49.082;8.200;2022-08-19T10:33:54;100049.75;;;25.28;55.64
7200;BME280;3641;49.082;8.200;2022-08-19T10:36:23;100040.41;;;25.04;52.87
7200;BME280;3641;49.082;8.200;2022-08-19T10:38:52;100041.28;;;24.99;53.61
7200;BME280;3641;49.082;8.200;2022-08-19T10:41:20;100046.03;;;24.93;57.71
7200;BME280;3641;49.082;8.200;2022-08-19T10:43:50;100039.09;;;24.86;56.50
7200;BME280;3641;49.082;8.200;2022-08-19T10:46:17;100045.09;;;24.69;53.08
7200;BME280;3641;49.082;8.200;2022-08-19T10:48:44;100045.97;;;24.59;55.13
7200;BME280;3641;49.082;8.200;2022-08-19T10:51:12;100041.22;;;24.54;55.57
7200;BME280;3641;49.082;8.200;2022-08-19T10:53:57;100039.53;;;24.58;54.74
7200;BME280;3641;49.082;8.200;2022-08-19T10:56:24;100042.84;;;24.55;55.22
7200;BME280;3641;49.082;8.200;2022-08-19T10:59:09;100032.13;;;24.88;54.51
7200;BME280;3641;49.082;8.200;2022-08-19T11:01:37;100029.41;;;25.17;53.15
7200;BME280;3641;49.082;8.200;2022-08-19T11:04:04;100020.44;;;25.20;52.42
7200;BME280;3641;49.082;8.200;2022-08-19T11:06:36;100014.22;;;24.94;55.90
7200;BME280;3641;49.082;8.200;2022-08-19T11:09:04;100009.50;;;24.90;55.32
7200;BME280;3641;49.082;8.200;2022-08-19T11:11:31;100003.38;;;24.88;55.13
7200;BME280;3641;49.082;8.200;2022-08-19T11:13:58;100003.66;;;24.81;53.74
7200;BME280;3641;49.082;8.200;2022-08-19T11:16:25;100004.84;;;24.70;53.37
7200;BME280;3641;49.082;8.200;2022-08-19T11:18:58;100009.13;;;24.62;54.15
7200;BME280;3641;49.082;8.200;2022-08-19T11:21:27;100008.00;;;24.58;53.30
7200;BME280;3641;49.082;8.200;2022-08-19T11:24:00;100010.22;;;24.51;56.90
7200;BME280;3641;49.082;8.200;2022-08-19T11:26:28;100002.44;;;24.53;55.69
7200;BME280;3641;49.082;8.200;2022-08-19T11:28:56;100002.44;;;24.53;55.00
7200;BME280;3641;49.082;8.200;2022-08-19T11:31:25;99995.44;;;24.60;54.11
7200;BME280;3641;49.082;8.200;2022-08-19T11:33:52;99998.53;;;24.59;54.09
7200;BME280;3641;49.082;8.200;2022-08-19T11:36:20;99992.38;;;24.57;57.23
7200;BME280;3641;49.082;8.200;2022-08-19T11:38:48;99992.09;;;24.53;55.51
7200;BME280;3641;49.082;8.200;2022-08-19T11:41:19;99993.19;;;24.52;55.40
7200;BME280;3641;49.082;8.200;2022-08-19T11:43:46;99977.84;;;24.55;53.63
7200;BME280;3641;49.082;8.200;2022-08-19T11:46:14;99976.19;;;24.59;53.59
7200;BME280;3641;49.082;8.200;2022-08-19T11:48:41;99980.34;;;24.61;52.46
7200;BME280;3641;49.082;8.200;2022-08-19T11:51:11;99972.91;;;24.91;50.78
7200;BME280;3641;49.082;8.200;2022-08-19T11:53:38;99967.50;;;25.05;50.54
7200;BME280;3641;49.082;8.200;2022-08-19T11:56:05;99968.72;;;25.28;47.90
7200;BME280;3641;49.082;8.200;2022-08-19T11:58:34;99965.22;;;25.47;48.50
7200;BME280;3641;49.082;8.200;2022-08-19T12:01:01;99967.34;;;25.55;48.85
7200;BME280;3641;49.082;8.200;2022-08-19T12:03:27;99975.38;;;25.62;46.88
7200;BME280;3641;49.082;8.200;2022-08-19T12:05:54;99973.09;;;25.69;45.40
7200;BME280;3641;49.082;8.200;2022-08-19T12:08:20;99969.38;;;26.03;41.48
7200;BME280;3641;49.082;8.200;2022-08-19T12:10:47;99964.22;;;26.15;43.04
7200;BME280;3641;49.082;8.200;2022-08-19T12:13:14;99968.91;;;26.39;42.59
7200;BME280;3641;49.082;8.200;2022-08-19T12:15:46;99960.19;;;26.21;41.18
7200;BME280;3641;49.082;8.200;2022-08-19T12:18:13;99962.47;;;26.19;41.56
7200;BME280;3641;49.082;8.200;2022-08-19T12:20:41;99966.84;;;26.25;44.26
7200;BME280;3641;49.082;8.200;2022-08-19T12:23:09;99963.03;;;26.59;39.05
7200;BME280;3641;49.082;8.200;2022-08-19T12:25:37;99960.56;;;26.77;39.54
7200;BME280;3641;49.082;8.200;2022-08-19T12:28:04;99966.03;;;26.87;39.75
7200;BME280;3641;49.082;8.200;2022-08-19T12:30:30;99965.56;;;26.80;40.17
7200;BME280;3641;49.082;8.200;2022-08-19T12:32:58;99965.75;;;27.03;39.23
7200;BME280;3641;49.082;8.200;2022-08-19T12:35:25;99968.22;;;27.23;38.46
7200;BME280;3641;49.082;8.200;2022-08-19T12:37:51;99966.22;;;27.10;39.25
7200;BME280;3641;49.082;8.200;2022-08-19T12:40:18;99961.41;;;26.77;38.95
7200;BME280;3641;49.082;8.200;2022-08-19T12:42:44;99963.38;;;26.77;39.39
7200;BME280;3641;49.082;8.200;2022-08-19T12:45:13;99967.59;;;26.55;40.85
7200;BME280;3641;49.082;8.200;2022-08-19T12:47:40;99965.47;;;26.66;38.44
7200;BME280;3641;49.082;8.200;2022-08-19T12:50:08;99958.75;;;26.86;39.90
7200;BME280;3641;49.082;8.200;2022-08-19T12:52:36;99961.53;;;27.05;38.69
7200;BME280;3641;49.082;8.200;2022-08-19T12:55:04;99964.84;;;27.07;38.46
7200;BME280;3641;49.082;8.200;2022-08-19T12:57:31;99968.41;;;27.32;38.54
7200;BME280;3641;49.082;8.200;2022-08-19T13:00:03;99971.22;;;27.32;37.51
7200;BME280;3641;49.082;8.200;2022-08-19T13:02:33;99964.59;;;27.23;37.83
7200;BME280;3641;49.082;8.200;2022-08-19T13:05:00;99961.34;;;27.15;38.45
7200;BME280;3641;49.082;8.200;2022-08-19T13:07:28;99966.66;;;26.98;40.58
7200;BME280;3641;49.082;8.200;2022-08-19T13:09:55;99966.63;;;26.84;42.00
7200;BME280;3641;49.082;8.200;2022-08-19T13:12:22;99960.94;;;26.70;40.75
7200;BME280;3641;49.082;8.200;2022-08-19T13:14:52;99964.41;;;26.62;44.38
7200;BME280;3641;49.082;8.200;2022-08-19T13:17:19;99969.78;;;26.58;41.09
7200;BME280;3641;49.082;8.200;2022-08-19T13:19:45;99953.59;;;26.55;43.46
7200;BME280;3641;49.082;8.200;2022-08-19T13:22:12;99953.72;;;26.45;42.08
7200;BME280;3641;49.082;8.200;2022-08-19T13:24:40;99959.19;;;26.55;39.69